Time;durP1;ratioP1;P1;durP2;ratioP2;P2;SDS_P1;SDS_P2;PMS_P1;PMS_P2;Temp;Humidity;BMP_temperature;BMP_pressure;BME280_temperature;BME280_humidity;BME280_pressure;Samples;Min_cycle;Max_cycle;Signal;HPM_P1;HPM_P2
2021/04/29 00:00:18;;;;;;;12.60;10.07;;;10.20;80.80;;;;;;2080909;28;20389;-69
2021/04/29 00:01:19;;;;;;;11.63;9.63;;;10.20;81.10;;;;;;2080930;28;20085;-70
2021/04/29 00:02:20;;;;;;;11.68;9.40;;;10.20;81.10;;;;;;2080659;28;20021;-70
2021/04/29 00:03:21;;;;;;;11.50;9.48;;;10.20;81.30;;;;;;2080451;28;20025;-69
2021/04/29 00:04:22;;;;;;;11.07;9.32;;;10.10;81.30;;;;;;2080839;28;20096;-70
2021/04/29 00:05:26;;;;;;;10.75;8.93;;;10.20;81.40;;;;;;2080656;28;20104;-69
2021/04/29 00:06:27;;;;;;;13.05;9.77;;;10.10;81.40;;;;;;2080514;28;20056;-70
2021/04/29 00:07:28;;;;;;;11.20;9.65;;;10.10;81.60;;;;;;2080634;28;20036;-70
2021/04/29 00:08:28;;;;;;;10.73;9.40;;;10.10;81.80;;;;;;2079774;28;20030;-68
2021/04/29 00:09:31;;;;;;;11.55;9.25;;;10.10;81.90;;;;;;2079995;28;20563;-69
2021/04/29 00:10:33;;;;;;;12.48;10.13;;;10.10;82.70;;;;;;2079637;28;20092;-70
2021/04/29 00:11:35;;;;;;;12.50;9.70;;;10.10;82.10;;;;;;2071625;28;20026;-70
2021/04/29 00:12:36;;;;;;;11.90;9.80;;;10.10;82.00;;;;;;2079590;28;20029;-70
2021/04/29 00:13:37;;;;;;;11.32;9.48;;;10.10;82.00;;;;;;2080226;28;20030;-70
2021/04/29 00:14:38;;;;;;;12.23;9.55;;;10.10;82.10;;;;;;2080215;28;20036;-70
2021/04/29 00:15:39;;;;;;;11.27;9.60;;;10.10;82.10;;;;;;2080205;28;20038;-69
2021/04/29 00:16:41;;;;;;;10.68;9.25;;;10.10;82.10;;;;;;2080421;28;20109;-70
2021/04/29 00:17:42;;;;;;;13.98;10.20;;;10.10;82.20;;;;;;2081696;28;20025;-70
2021/04/29 00:18:42;;;;;;;18.50;11.73;;;10.10;82.40;;;;;;2081416;28;20033;-71
2021/04/29 00:19:43;;;;;;;13.15;10.55;;;10.10;82.70;;;;;;2080948;28;20076;-70
2021/04/29 00:20:44;;;;;;;15.50;11.32;;;10.20;82.60;;;;;;2081114;28;20033;-70
2021/04/29 00:21:45;;;;;;;14.55;11.45;;;10.20;83.00;;;;;;2081817;28;20025;-69
2021/04/29 00:22:46;;;;;;;18.35;11.50;;;10.20;82.80;;;;;;2081698;28;20022;-70
2021/04/29 00:23:47;;;;;;;13.75;10.77;;;10.30;82.80;;;;;;2081707;28;20037;-71
2021/04/29 00:24:47;;;;;;;13.98;10.25;;;10.30;82.10;;;;;;2080885;28;20041;-70
2021/04/29 00:25:48;;;;;;;12.90;10.00;;;10.40;81.90;;;;;;2080998;28;20037;-70
2021/04/29 00:26:49;;;;;;;11.20;9.40;;;10.40;81.50;;;;;;2064753;28;20030;-68
2021/04/29 00:27:49;;;;;;;16.55;10.93;;;10.40;81.30;;;;;;2071334;28;20022;-70
2021/04/29 00:28:52;;;;;;;11.85;9.63;;;10.50;81.00;;;;;;2081290;28;20083;-69
2021/04/29 00:29:53;;;;;;;12.35;10.05;;;10.50;80.70;;;;;;2081387;28;20040;-70
2021/04/29 00:30:53;;;;;;;14.10;10.55;;;10.60;80.50;;;;;;2081596;28;20022;-69
2021/04/29 00:31:54;;;;;;;14.65;10.57;;;10.60;80.20;;;;;;2081471;28;20040;-69
2021/04/29 00:32:54;;;;;;;16.73;10.73;;;10.70;79.70;;;;;;2081599;28;20022;-70
2021/04/29 00:33:55;;;;;;;16.23;10.57;;;10.80;79.00;;;;;;2080954;28;20052;-70
2021/04/29 00:34:56;;;;;;;12.45;9.88;;;10.90;78.60;;;;;;2072668;28;20386;-70
2021/04/29 00:36:00;;;;;;;13.05;9.30;;;10.90;78.30;;;;;;2080769;28;20029;-70
2021/04/29 00:37:00;;;;;;;13.63;10.05;;;10.90;78.10;;;;;;2081462;28;20370;-70
2021/04/29 00:38:01;;;;;;;14.40;10.27;;;11.00;77.90;;;;;;2081549;28;20114;-71
2021/04/29 00:39:02;;;;;;;14.02;9.75;;;11.10;76.90;;;;;;2081292;28;20021;-69
2021/04/29 00:40:04;;;;;;;14.55;10.40;;;11.10;76.50;;;;;;2081487;28;20022;-70
2021/04/29 00:41:05;;;;;;;14.88;9.70;;;11.20;76.70;;;;;;2081560;28;20045;-70
2021/04/29 00:42:07;;;;;;;18.33;10.07;;;11.20;76.50;;;;;;2081755;28;20056;-70
2021/04/29 00:43:11;;;;;;;15.07;9.68;;;11.20;76.10;;;;;;2081561;28;20036;-70
2021/04/29 00:44:12;;;;;;;13.35;9.75;;;11.30;75.80;;;;;;2081709;28;20021;-69
2021/04/29 00:45:13;;;;;;;12.52;9.57;;;11.30;75.90;;;;;;2081509;28;20029;-70
2021/04/29 00:46:13;;;;;;;14.15;9.85;;;11.30;75.50;;;;;;2080887;28;20033;-70
2021/04/29 00:47:14;;;;;;;14.70;9.57;;;11.30;75.50;;;;;;2080833;28;20033;-69
2021/04/29 00:48:15;;;;;;;15.32;9.93;;;11.30;75.00;;;;;;2089020;28;20606;-69
2021/04/29 00:49:16;;;;;;;12.80;9.68;;;11.40;74.60;;;;;;2081425;28;20030;-71
2021/04/29 00:50:20;;;;;;;14.80;10.70;;;11.40;74.80;;;;;;2081568;28;20034;-70
2021/04/29 00:51:21;;;;;;;17.83;9.98;;;11.40;74.70;;;;;;2081474;28;20024;-70
2021/04/29 00:52:22;;;;;;;13.07;9.60;;;11.50;74.50;;;;;;2081443;28;20377;-69
2021/04/29 00:53:37;;;;;;;11.93;9.48;;;11.50;74.30;;;;;;2081483;28;20485;-70
2021/04/29 00:54:38;;;;;;;14.00;9.85;;;11.50;74.20;;;;;;2081545;28;20164;-71
2021/04/29 00:55:38;;;;;;;14.32;9.70;;;11.50;74.60;;;;;;2081525;28;20021;-70
2021/04/29 00:56:39;;;;;;;10.15;8.90;;;11.50;74.00;;;;;;2080770;28;20063;-70
2021/04/29 00:57:39;;;;;;;11.73;9.20;;;11.50;74.00;;;;;;2077077;28;20018;-70
2021/04/29 00:58:40;;;;;;;11.93;9.23;;;11.40;73.90;;;;;;2079536;28;20052;-70
2021/04/29 00:59:41;;;;;;;11.07;8.27;;;11.40;73.90;;;;;;2080795;28;20041;-70
2021/04/29 01:00:42;;;;;;;10.60;8.30;;;11.40;73.70;;;;;;2081380;28;20041;-70
2021/04/29 01:01:46;;;;;;;14.15;9.40;;;11.40;73.80;;;;;;2081350;28;20048;-70
2021/04/29 01:03:22;;;;;;;14.00;9.73;;;11.40;74.10;;;;;;2081455;28;20025;-69
2021/04/29 01:04:46;;;;;;;12.75;9.15;;;11.40;73.50;;;;;;2070091;28;20034;-69
2021/04/29 01:05:57;;;;;;;12.50;9.40;;;11.50;73.70;;;;;;2081105;28;20112;-69
2021/04/29 01:07:01;;;;;;;12.73;9.23;;;11.50;73.50;;;;;;2067799;28;20026;-71
2021/04/29 01:08:07;;;;;;;12.20;9.45;;;11.50;73.50;;;;;;2080881;28;20068;-70
2021/04/29 01:09:16;;;;;;;12.98;9.50;;;11.50;73.30;;;;;;2073159;28;20053;-70
2021/04/29 01:10:27;;;;;;;12.48;9.02;;;11.50;73.30;;;;;;2073892;28;20037;-70
2021/04/29 01:11:31;;;;;;;14.02;9.07;;;11.50;73.10;;;;;;2081041;28;20080;-70
2021/04/29 01:12:43;;;;;;;12.52;9.38;;;11.50;73.20;;;;;;2081464;28;20543;-70
2021/04/29 01:13:50;;;;;;;12.25;8.65;;;11.50;73.40;;;;;;2080835;28;20088;-70
2021/04/29 01:14:52;;;;;;;14.38;9.25;;;11.50;73.30;;;;;;2064981;28;20045;-70
2021/04/29 01:15:53;;;;;;;13.27;9.10;;;11.50;73.20;;;;;;2081292;28;20032;-70
2021/04/29 01:16:55;;;;;;;12.80;8.73;;;11.60;72.90;;;;;;2081216;28;20030;-70
2021/04/29 01:17:57;;;;;;;12.77;9.02;;;11.60;73.00;;;;;;2080573;28;20095;-70
2021/04/29 01:18:58;;;;;;;12.88;9.13;;;11.60;73.20;;;;;;2080228;28;20057;-70
2021/04/29 01:20:05;;;;;;;10.45;8.63;;;11.60;73.20;;;;;;2080806;28;20531;-69
2021/04/29 01:21:15;;;;;;;12.05;9.00;;;11.60;73.00;;;;;;2080710;28;20052;-69
2021/04/29 01:22:16;;;;;;;;;;;11.60;73.00;;;;;;2081713;28;20025;-70
2021/04/29 01:23:40;;;;;;;13.18;9.75;;;11.60;72.80;;;;;;2080735;28;19920;-71
2021/04/29 01:24:55;;;;;;;10.73;8.73;;;11.70;72.70;;;;;;2080998;28;20108;-71
2021/04/29 01:25:59;;;;;;;13.18;8.73;;;11.60;72.70;;;;;;2073556;28;20061;-69
2021/04/29 01:27:02;;;;;;;10.68;8.48;;;11.60;72.80;;;;;;2080615;28;20025;-70
2021/04/29 01:28:03;;;;;;;10.05;8.23;;;11.60;73.00;;;;;;2075572;28;20069;-70
2021/04/29 01:29:07;;;;;;;12.88;8.55;;;11.50;73.10;;;;;;2072130;28;20579;-69
2021/04/29 01:30:11;;;;;;;13.23;9.02;;;11.50;73.20;;;;;;2081053;28;20112;-70
2021/04/29 01:31:12;;;;;;;12.30;8.95;;;11.50;73.40;;;;;;2081623;28;20029;-71
2021/04/29 01:32:13;;;;;;;12.55;9.30;;;11.50;73.30;;;;;;2081634;28;20018;-70
2021/04/29 01:33:14;;;;;;;11.80;8.52;;;11.60;73.00;;;;;;2080906;28;20049;-70
2021/04/29 01:34:18;;;;;;;10.80;8.30;;;11.60;72.90;;;;;;2064315;28;20027;-70
2021/04/29 01:35:19;;;;;;;12.30;8.70;;;11.60;72.70;;;;;;2072856;28;20481;-70
2021/04/29 01:36:21;;;;;;;10.48;8.40;;;11.60;72.80;;;;;;2080936;28;20029;-70
2021/04/29 01:37:22;;;;;;;11.55;8.77;;;11.60;72.60;;;;;;2081089;28;20049;-70
2021/04/29 01:38:23;;;;;;;12.45;9.02;;;11.60;72.60;;;;;;2080628;28;20025;-70
2021/04/29 01:39:25;;;;;;;10.48;8.52;;;11.60;72.40;;;;;;2081156;28;20057;-69
2021/04/29 01:40:26;;;;;;;12.38;8.68;;;11.70;72.30;;;;;;2081011;28;20021;-70
2021/04/29 01:41:27;;;;;;;10.65;8.88;;;11.70;72.20;;;;;;2081194;28;20360;-70
2021/04/29 01:42:28;;;;;;;12.77;8.85;;;11.60;72.20;;;;;;2080975;28;20029;-70
2021/04/29 01:43:30;;;;;;;10.90;8.68;;;11.70;72.20;;;;;;2081230;28;20167;-70
2021/04/29 01:44:31;;;;;;;11.32;9.20;;;11.60;72.10;;;;;;2081028;28;20083;-70
2021/04/29 01:45:32;;;;;;;11.77;8.73;;;11.60;72.30;;;;;;2081072;28;20045;-70
2021/04/29 01:46:33;;;;;;;11.40;8.77;;;11.70;72.10;;;;;;2081042;28;20524;-69
2021/04/29 01:47:35;;;;;;;11.50;8.68;;;11.70;72.00;;;;;;2081026;28;20745;-68
2021/04/29 01:48:36;;;;;;;11.45;8.75;;;11.70;71.80;;;;;;2071806;28;20029;-69
2021/04/29 01:49:37;;;;;;;12.27;8.68;;;11.70;71.70;;;;;;2072328;28;20030;-69
2021/04/29 01:50:38;;;;;;;12.50;8.27;;;11.70;72.00;;;;;;2080475;28;20034;-69
2021/04/29 01:51:40;;;;;;;11.93;8.52;;;11.70;72.00;;;;;;2080516;28;20386;-70
2021/04/29 01:52:41;;;;;;;12.27;9.10;;;11.70;72.00;;;;;;2081147;28;20033;-70
2021/04/29 01:53:42;;;;;;;14.25;8.88;;;11.70;71.70;;;;;;2081061;28;20042;-70
2021/04/29 01:54:43;;;;;;;11.98;8.73;;;11.70;71.80;;;;;;2081173;28;20026;-69
2021/04/29 01:55:45;;;;;;;11.77;8.20;;;11.70;71.90;;;;;;2081150;28;20040;-70
2021/04/29 01:56:46;;;;;;;11.48;8.60;;;11.80;71.80;;;;;;2080260;28;20025;-70
2021/04/29 01:57:47;;;;;;;12.82;8.45;;;11.70;71.70;;;;;;2076003;28;20033;-70
2021/04/29 01:58:47;;;;;;;12.40;8.70;;;11.70;71.40;;;;;;2080399;28;20029;-70
2021/04/29 01:59:48;;;;;;;11.23;8.05;;;11.70;71.30;;;;;;2080986;28;20037;-70
2021/04/29 02:00:50;;;;;;;13.05;8.73;;;11.70;71.70;;;;;;2080428;28;20030;-68
2021/04/29 02:01:51;;;;;;;12.23;8.60;;;11.70;72.00;;;;;;2080272;28;20034;-69
2021/04/29 02:02:52;;;;;;;12.00;8.75;;;11.70;72.00;;;;;;2081156;28;20688;-69
2021/04/29 02:03:53;;;;;;;12.60;8.98;;;11.70;71.90;;;;;;2080489;28;20029;-70
2021/04/29 02:04:54;;;;;;;11.90;8.70;;;11.70;72.20;;;;;;2080643;28;20025;-70
2021/04/29 02:05:55;;;;;;;14.93;8.40;;;11.70;72.00;;;;;;2081240;28;20485;-70
2021/04/29 02:06:56;;;;;;;13.27;9.02;;;11.70;72.10;;;;;;2080577;28;20485;-70
2021/04/29 02:07:57;;;;;;;13.90;8.77;;;11.80;72.00;;;;;;2080573;28;20513;-69
2021/04/29 02:09:00;;;;;;;14.52;8.82;;;11.80;72.20;;;;;;2080009;28;20029;-70
2021/04/29 02:10:00;;;;;;;12.82;8.77;;;11.80;71.60;;;;;;2080449;28;20025;-70
2021/04/29 02:11:02;;;;;;;12.10;8.55;;;11.80;71.80;;;;;;2081131;28;20108;-69
2021/04/29 02:12:04;;;;;;;9.63;8.10;;;11.80;71.70;;;;;;2081069;28;20021;-70
2021/04/29 02:13:09;;;;;;;11.60;8.38;;;11.80;71.80;;;;;;2081234;28;20037;-71
2021/04/29 02:14:10;;;;;;;10.60;8.68;;;11.80;72.00;;;;;;2080939;28;20435;-70
2021/04/29 02:15:12;;;;;;;9.68;8.15;;;11.80;72.10;;;;;;2080772;28;20017;-70
2021/04/29 02:16:17;;;;;;;13.40;8.75;;;11.80;72.00;;;;;;2080733;28;20045;-69
2021/04/29 02:17:28;;;;;;;12.88;8.50;;;11.80;72.10;;;;;;2080206;28;20460;-70
2021/04/29 02:18:30;;;;;;;9.20;8.02;;;11.80;71.90;;;;;;2079922;28;20022;-70
2021/04/29 02:19:31;;;;;;;10.88;8.77;;;11.80;71.90;;;;;;2080106;28;20025;-70
2021/04/29 02:20:35;;;;;;;12.18;9.05;;;11.80;72.10;;;;;;2080224;28;20025;-69
2021/04/29 02:21:37;;;;;;;13.02;8.82;;;11.80;72.20;;;;;;2080928;28;20481;-69
2021/04/29 02:22:43;;;;;;;12.68;9.02;;;11.80;72.10;;;;;;2080224;28;20029;-70
2021/04/29 02:23:48;;;;;;;11.88;8.63;;;11.80;72.00;;;;;;2080232;28;20405;-70
2021/04/29 02:24:50;;;;;;;10.30;8.52;;;11.80;72.10;;;;;;2081046;28;20040;-70
2021/04/29 02:25:57;;;;;;;14.38;8.73;;;11.80;72.00;;;;;;2065120;28;20080;-70
2021/04/29 02:26:58;;;;;;;13.20;8.82;;;11.80;72.30;;;;;;2080912;28;20032;-71
2021/04/29 02:27:59;;;;;;;12.02;8.68;;;11.80;72.10;;;;;;2075850;28;20096;-70
2021/04/29 02:29:04;;;;;;;10.77;8.57;;;11.80;72.10;;;;;;2080473;28;20029;-70
2021/04/29 02:30:14;;;;;;;10.88;8.05;;;11.80;72.20;;;;;;2080792;28;20400;-70
2021/04/29 02:31:15;;;;;;;10.80;8.85;;;11.80;72.20;;;;;;2080467;28;20029;-70
2021/04/29 02:32:17;;;;;;;11.48;8.27;;;11.80;72.10;;;;;;2063893;28;20023;-69
2021/04/29 02:33:18;;;;;;;11.80;8.82;;;11.80;72.20;;;;;;2072322;28;20046;-69
2021/04/29 02:34:20;;;;;;;10.95;8.88;;;11.80;72.20;;;;;;2088707;28;20064;-70
2021/04/29 02:35:21;;;;;;;15.95;9.30;;;11.80;72.10;;;;;;2080251;28;20108;-70
2021/04/29 02:36:22;;;;;;;11.57;8.70;;;11.80;72.20;;;;;;2080209;28;20479;-71
2021/04/29 02:37:23;;;;;;;13.43;8.60;;;11.80;72.30;;;;;;2080998;28;20025;-70
2021/04/29 02:38:24;;;;;;;12.18;8.88;;;11.80;72.10;;;;;;2080667;28;20088;-71
2021/04/29 02:39:25;;;;;;;12.57;8.68;;;11.80;72.30;;;;;;2080583;28;20029;-69
2021/04/29 02:40:27;;;;;;;11.45;9.23;;;11.80;72.60;;;;;;2080934;28;20037;-70
2021/04/29 02:41:28;;;;;;;12.23;9.07;;;11.80;72.60;;;;;;2080713;28;20026;-70
2021/04/29 02:42:29;;;;;;;12.18;9.15;;;11.80;72.60;;;;;;2080705;28;20026;-70
2021/04/29 02:43:30;;;;;;;12.52;9.32;;;11.80;72.80;;;;;;2080749;28;20045;-70
2021/04/29 02:44:31;;;;;;;12.63;9.20;;;11.70;72.90;;;;;;2080749;28;20060;-70
2021/04/29 02:45:32;;;;;;;12.88;9.05;;;11.70;73.00;;;;;;2081002;28;20060;-70
2021/04/29 02:46:33;;;;;;;12.20;9.15;;;11.70;72.80;;;;;;2080641;28;20030;-70
2021/04/29 02:47:35;;;;;;;12.25;9.13;;;11.70;72.90;;;;;;2080956;28;20067;-70
2021/04/29 02:48:36;;;;;;;14.48;9.20;;;11.70;73.00;;;;;;2080613;28;20057;-70
2021/04/29 02:49:36;;;;;;;13.98;9.05;;;11.70;72.80;;;;;;2080789;28;20025;-69
2021/04/29 02:50:43;;;;;;;12.48;8.73;;;11.70;72.90;;;;;;2080622;28;20025;-70
2021/04/29 02:51:44;;;;;;;10.82;8.70;;;11.70;73.10;;;;;;2080946;28;20040;-70
2021/04/29 02:52:46;;;;;;;11.20;8.68;;;11.70;73.20;;;;;;2080678;28;20049;-70
2021/04/29 02:53:47;;;;;;;11.30;8.55;;;11.70;73.10;;;;;;2080690;28;20033;-70
2021/04/29 02:54:47;;;;;;;14.20;9.55;;;11.70;72.90;;;;;;2080688;28;20054;-70
2021/04/29 02:55:49;;;;;;;13.55;8.95;;;11.70;73.80;;;;;;2080511;28;20087;-71
2021/04/29 02:56:50;;;;;;;14.68;9.55;;;11.70;72.80;;;;;;2064917;28;20041;-70
2021/04/29 02:57:59;;;;;;;12.55;9.13;;;11.70;72.80;;;;;;2075461;28;20057;-71
2021/04/29 02:59:00;;;;;;;12.15;9.00;;;11.70;72.90;;;;;;2080311;28;20093;-71
2021/04/29 03:00:03;;;;;;;12.75;9.23;;;11.70;73.00;;;;;;2080625;28;20504;-69
2021/04/29 03:01:03;;;;;;;12.90;8.80;;;11.70;73.10;;;;;;2080344;28;20021;-70
2021/04/29 03:02:04;;;;;;;11.43;8.73;;;11.70;73.40;;;;;;2080604;28;20560;-70
2021/04/29 03:03:07;;;;;;;11.40;8.77;;;11.70;73.40;;;;;;2080611;28;20029;-70
2021/04/29 03:04:08;;;;;;;11.48;8.52;;;11.70;73.30;;;;;;2080620;28;20025;-70
2021/04/29 03:05:11;;;;;;;11.82;8.57;;;11.70;73.30;;;;;;2080629;28;20085;-70
2021/04/29 03:06:12;;;;;;;12.32;8.93;;;11.70;73.50;;;;;;2080611;28;20045;-69
2021/04/29 03:07:12;;;;;;;11.65;9.05;;;11.70;73.60;;;;;;2080514;28;20026;-70
2021/04/29 03:08:13;;;;;;;12.80;9.23;;;11.60;73.80;;;;;;2080666;28;20544;-68
2021/04/29 03:09:15;;;;;;;10.75;8.75;;;11.60;73.70;;;;;;2080226;28;20104;-69
2021/04/29 03:10:16;;;;;;;11.48;8.77;;;11.60;73.90;;;;;;2080677;28;20440;-70
2021/04/29 03:11:17;;;;;;;12.43;9.05;;;11.70;73.90;;;;;;2080147;28;20048;-70
2021/04/29 03:12:17;;;;;;;10.73;8.55;;;11.60;74.70;;;;;;2071952;28;20034;-69
2021/04/29 03:13:18;;;;;;;12.35;9.23;;;11.60;74.10;;;;;;2071688;28;20029;-70
2021/04/29 03:14:18;;;;;;;13.00;8.82;;;11.60;74.00;;;;;;2071572;28;20038;-71
2021/04/29 03:15:20;;;;;;;14.13;9.68;;;11.60;74.10;;;;;;2071620;28;20034;-70
2021/04/29 03:16:21;;;;;;;15.20;9.82;;;11.60;74.20;;;;;;2079752;28;20043;-69
2021/04/29 03:17:21;;;;;;;12.57;9.07;;;11.60;74.00;;;;;;2079918;28;20040;-70
2021/04/29 03:18:22;;;;;;;13.75;8.98;;;11.60;74.10;;;;;;2079958;28;20009;-67
2021/04/29 03:19:22;;;;;;;10.68;8.38;;;11.60;74.50;;;;;;2080532;28;20056;-70
2021/04/29 03:20:23;;;;;;;13.52;9.60;;;11.60;74.40;;;;;;2080365;28;20119;-70
2021/04/29 03:21:24;;;;;;;11.75;9.05;;;11.60;74.70;;;;;;2079785;28;20076;-69
2021/04/29 03:22:24;;;;;;;15.57;9.65;;;11.60;74.60;;;;;;2071771;28;20053;-70
2021/04/29 03:23:25;;;;;;;10.10;8.55;;;11.60;74.60;;;;;;2079819;28;20025;-71
2021/04/29 03:24:26;;;;;;;11.85;8.88;;;11.60;74.50;;;;;;2080380;28;20041;-69
2021/04/29 03:25:26;;;;;;;12.38;9.30;;;11.60;74.70;;;;;;2080541;28;20175;-70
2021/04/29 03:26:27;;;;;;;13.77;9.70;;;11.60;74.60;;;;;;2080426;28;20029;-70
2021/04/29 03:27:27;;;;;;;13.43;9.50;;;11.60;75.00;;;;;;2077621;28;20029;-70
2021/04/29 03:28:29;;;;;;;12.30;8.88;;;11.60;74.90;;;;;;2076629;28;20105;-69
2021/04/29 03:29:30;;;;;;;12.93;9.13;;;11.60;75.00;;;;;;2080391;28;20072;-71
2021/04/29 03:30:31;;;;;;;14.57;9.73;;;11.60;75.10;;;;;;2080350;28;20056;-70
2021/04/29 03:31:31;;;;;;;13.43;9.65;;;11.60;75.20;;;;;;2079818;28;20030;-70
2021/04/29 03:32:32;;;;;;;13.82;9.80;;;11.60;75.20;;;;;;2079984;28;20040;-68
2021/04/29 03:33:33;;;;;;;16.95;10.05;;;11.60;75.20;;;;;;2080462;28;20065;-70
2021/04/29 03:34:33;;;;;;;12.68;9.90;;;11.60;75.30;;;;;;2080480;28;20021;-70
2021/04/29 03:35:34;;;;;;;13.10;9.35;;;11.60;75.30;;;;;;2080318;28;20078;-70
2021/04/29 03:36:37;;;;;;;11.07;9.18;;;11.60;75.10;;;;;;2079487;28;20038;-70
2021/04/29 03:37:38;;;;;;;15.63;9.90;;;11.60;75.00;;;;;;2079849;28;20032;-70
2021/04/29 03:38:38;;;;;;;14.40;9.65;;;11.70;75.10;;;;;;2079916;28;20018;-69
2021/04/29 03:39:39;;;;;;;13.65;9.52;;;11.60;75.00;;;;;;2081727;28;20081;-69
2021/04/29 03:40:40;;;;;;;14.55;9.85;;;11.60;75.10;;;;;;2080371;28;20064;-69
2021/04/29 03:41:40;;;;;;;15.05;10.20;;;11.60;75.30;;;;;;2080507;28;20020;-69
2021/04/29 03:42:41;;;;;;;14.90;9.77;;;11.60;75.20;;;;;;2080726;28;20029;-70
2021/04/29 03:43:42;;;;;;;15.88;10.35;;;11.70;75.30;;;;;;2087890;28;20037;-70
2021/04/29 03:44:42;;;;;;;14.25;9.50;;;11.60;75.30;;;;;;2087891;28;20037;-69
2021/04/29 03:45:43;;;;;;;12.18;9.38;;;11.70;75.30;;;;;;2080410;28;20026;-70
2021/04/29 03:46:44;;;;;;;12.52;9.77;;;11.70;75.70;;;;;;2080119;28;20481;-70
2021/04/29 03:47:44;;;;;;;12.05;9.13;;;11.60;75.70;;;;;;2080249;28;20036;-70
2021/04/29 03:48:45;;;;;;;15.93;10.32;;;11.60;75.70;;;;;;2079887;28;20087;-69
2021/04/29 03:49:45;;;;;;;13.70;10.00;;;11.70;75.80;;;;;;2080247;28;20029;-70
2021/04/29 03:50:46;;;;;;;14.27;10.10;;;11.70;75.90;;;;;;2080164;28;20072;-70
2021/04/29 03:51:47;;;;;;;13.10;10.05;;;11.70;76.10;;;;;;2081380;28;20033;-71
2021/04/29 03:52:47;;;;;;;11.57;9.30;;;11.70;76.10;;;;;;2082473;28;20037;-70
2021/04/29 03:53:48;;;;;;;11.73;9.35;;;11.60;76.30;;;;;;2082450;28;20108;-72
2021/04/29 03:54:48;;;;;;;12.02;9.60;;;11.70;76.70;;;;;;2082490;28;20594;-71
2021/04/29 03:55:49;;;;;;;17.08;9.68;;;11.60;76.70;;;;;;2066277;28;20057;-69
2021/04/29 03:56:53;;;;;;;12.43;9.30;;;11.60;77.20;;;;;;2082152;28;20025;-69
2021/04/29 03:57:54;;;;;;;12.32;9.15;;;11.60;77.00;;;;;;2077366;28;20916;-69
2021/04/29 03:58:54;;;;;;;15.57;10.80;;;11.70;77.90;;;;;;2081224;28;20172;-70
2021/04/29 03:59:55;;;;;;;13.50;10.15;;;11.60;78.00;;;;;;2081365;28;20627;-70
2021/04/29 04:00:55;;;;;;;15.07;10.60;;;11.60;77.90;;;;;;2082088;28;20472;-69
2021/04/29 04:01:56;;;;;;;13.00;10.20;;;11.60;78.50;;;;;;2082059;28;20053;-70
2021/04/29 04:02:57;;;;;;;12.50;10.38;;;11.70;78.50;;;;;;2081454;28;20111;-70
2021/04/29 04:03:57;;;;;;;12.55;10.07;;;11.70;78.80;;;;;;2081584;28;20025;-70
2021/04/29 04:04:58;;;;;;;17.20;11.07;;;11.60;79.60;;;;;;2082031;28;20091;-71
2021/04/29 04:05:58;;;;;;;13.27;10.07;;;11.70;80.20;;;;;;2082125;28;20055;-71
2021/04/29 04:06:59;;;;;;;12.02;9.73;;;11.60;80.20;;;;;;2082005;28;20026;-70
2021/04/29 04:08:00;;;;;;;13.73;10.00;;;11.60;80.60;;;;;;2081925;28;20070;-69
2021/04/29 04:09:00;;;;;;;13.07;11.13;;;11.60;81.20;;;;;;2081699;28;20030;-70
2021/04/29 04:10:02;;;;;;;15.40;11.07;;;11.60;81.40;;;;;;2081877;28;20025;-70
2021/04/29 04:11:03;;;;;;;13.65;10.40;;;11.60;82.50;;;;;;2081820;28;20017;-70
2021/04/29 04:12:04;;;;;;;13.95;11.18;;;11.50;83.10;;;;;;2081902;28;20053;-70
2021/04/29 04:13:04;;;;;;;17.13;11.55;;;11.50;82.70;;;;;;2081698;28;20473;-70
2021/04/29 04:14:05;;;;;;;14.27;11.02;;;11.50;82.30;;;;;;2081763;28;20018;-71
2021/04/29 04:15:07;;;;;;;15.27;10.70;;;11.50;82.10;;;;;;2081769;28;20033;-69
2021/04/29 04:16:11;;;;;;;14.52;11.00;;;11.50;82.20;;;;;;2081813;28;20025;-70
2021/04/29 04:17:12;;;;;;;13.35;10.93;;;11.50;82.30;;;;;;2081657;28;20137;-69
2021/04/29 04:18:13;;;;;;;14.93;11.80;;;11.50;82.70;;;;;;2081678;28;20052;-70
2021/04/29 04:19:13;;;;;;;15.40;11.32;;;11.50;83.10;;;;;;2081542;28;20400;-70
2021/04/29 04:20:14;;;;;;;13.63;10.65;;;11.50;83.10;;;;;;2081977;28;20021;-69
2021/04/29 04:21:15;;;;;;;17.15;10.90;;;11.50;83.70;;;;;;2081058;28;20120;-70
2021/04/29 04:22:16;;;;;;;15.75;11.95;;;11.50;83.90;;;;;;2081160;28;20585;-70
2021/04/29 04:23:19;;;;;;;15.13;11.55;;;11.50;84.30;;;;;;2081557;28;20017;-69
2021/04/29 04:24:20;;;;;;;15.88;11.82;;;11.50;84.50;;;;;;2081681;28;20088;-69
2021/04/29 04:25:21;;;;;;;14.90;11.40;;;11.40;84.60;;;;;;2080989;28;20410;-70
2021/04/29 04:26:22;;;;;;;15.90;12.05;;;11.50;85.50;;;;;;2080994;28;20037;-70
2021/04/29 04:27:23;;;;;;;18.45;12.57;;;11.50;85.00;;;;;;2079182;28;20029;-69
2021/04/29 04:28:23;;;;;;;15.07;12.13;;;11.50;84.40;;;;;;2069247;28;20165;-70
2021/04/29 04:29:24;;;;;;;15.55;12.13;;;11.40;84.40;;;;;;2080530;28;20032;-69
2021/04/29 04:30:25;;;;;;;13.95;11.35;;;11.40;86.10;;;;;;2089419;28;20557;-69
2021/04/29 04:31:25;;;;;;;14.38;10.95;;;11.40;86.20;;;;;;2081677;28;20032;-70
2021/04/29 04:32:26;;;;;;;12.85;10.20;;;11.50;86.10;;;;;;2081662;28;20112;-70
2021/04/29 04:33:27;;;;;;;14.02;11.23;;;11.50;86.20;;;;;;2081014;28;20095;-70
2021/04/29 04:34:27;;;;;;;14.98;11.98;;;11.40;86.50;;;;;;2081082;28;20437;-70
2021/04/29 04:35:28;;;;;;;15.13;11.02;;;11.40;85.60;;;;;;2081669;28;20036;-70
2021/04/29 04:36:29;;;;;;;12.45;10.55;;;11.40;85.60;;;;;;2080816;28;20075;-70
2021/04/29 04:37:30;;;;;;;10.93;9.57;;;11.40;85.60;;;;;;2080887;28;20128;-70
2021/04/29 04:38:31;;;;;;;10.93;9.20;;;11.50;85.70;;;;;;2080868;28;20125;-70
2021/04/29 04:39:33;;;;;;;11.20;9.45;;;11.50;85.90;;;;;;2080908;28;20048;-69
2021/04/29 04:40:33;;;;;;;11.10;9.32;;;11.50;85.60;;;;;;2080865;28;20025;-70
2021/04/29 04:41:34;;;;;;;12.98;10.27;;;11.50;85.70;;;;;;2072721;28;20662;-70
2021/04/29 04:42:35;;;;;;;12.20;9.80;;;11.50;85.60;;;;;;2081084;28;20104;-70
2021/04/29 04:43:36;;;;;;;16.42;11.35;;;11.50;85.80;;;;;;2089015;28;20055;-71
2021/04/29 04:44:36;;;;;;;13.88;10.48;;;11.50;86.20;;;;;;2080641;28;20056;-75
2021/04/29 04:45:37;;;;;;;14.27;11.77;;;11.50;85.90;;;;;;2080841;28;20029;-68
2021/04/29 04:46:38;;;;;;;14.75;11.60;;;11.40;86.70;;;;;;2081270;28;20437;-69
2021/04/29 04:47:39;;;;;;;17.67;13.48;;;11.40;86.80;;;;;;2080788;28;20512;-71
2021/04/29 04:48:40;;;;;;;16.60;13.50;;;11.40;88.00;;;;;;2080563;28;20025;-71
2021/04/29 04:49:40;;;;;;;17.02;13.75;;;11.40;88.40;;;;;;2081420;28;20026;-70
2021/04/29 04:50:41;;;;;;;18.23;13.45;;;11.40;89.70;;;;;;2081389;28;20044;-69
2021/04/29 04:51:42;;;;;;;19.05;14.05;;;11.40;90.50;;;;;;2081389;28;20037;-70
2021/04/29 04:52:42;;;;;;;16.15;12.98;;;11.30;91.00;;;;;;2080851;28;20034;-70
2021/04/29 04:53:43;;;;;;;14.68;12.30;;;11.30;91.00;;;;;;2080723;28;20029;-70
2021/04/29 04:54:44;;;;;;;15.02;11.93;;;11.30;91.20;;;;;;2081379;28;20025;-69
2021/04/29 04:55:47;;;;;;;14.23;11.65;;;11.30;91.00;;;;;;2081615;28;20554;-71
2021/04/29 04:56:48;;;;;;;13.73;11.40;;;11.30;91.00;;;;;;2080599;28;20033;-71
2021/04/29 04:57:49;;;;;;;13.27;11.45;;;11.30;91.00;;;;;;2072534;28;20524;-70
2021/04/29 04:58:49;;;;;;;12.95;10.68;;;11.30;91.00;;;;;;2080910;28;20022;-70
2021/04/29 04:59:50;;;;;;;12.73;10.65;;;11.30;91.00;;;;;;2081288;28;20507;-71
2021/04/29 05:00:51;;;;;;;13.00;10.70;;;11.30;91.10;;;;;;2081377;28;20061;-71
2021/04/29 05:01:51;;;;;;;13.50;11.07;;;11.30;91.00;;;;;;2081399;28;20030;-69
2021/04/29 05:02:52;;;;;;;13.57;10.50;;;11.30;91.40;;;;;;2080994;28;20400;-68
2021/04/29 05:03:54;;;;;;;12.93;10.85;;;11.30;91.10;;;;;;2081357;28;20503;-72
2021/04/29 05:04:55;;;;;;;12.20;9.88;;;11.30;91.10;;;;;;2080700;28;20041;-70
2021/04/29 05:05:56;;;;;;;11.15;9.57;;;11.30;91.10;;;;;;2080747;28;20112;-71
2021/04/29 05:06:56;;;;;;;13.18;10.90;;;11.30;91.40;;;;;;2081278;28;20022;-70
2021/04/29 05:08:00;;;;;;;13.95;12.00;;;11.30;91.60;;;;;;2080672;28;20484;-72
2021/04/29 05:09:02;;;;;;;15.23;12.30;;;11.20;91.60;;;;;;2072539;28;20026;-71
2021/04/29 05:10:04;;;;;;;16.42;12.65;;;11.20;91.80;;;;;;2080750;28;20052;-71
2021/04/29 05:11:04;;;;;;;16.90;12.60;;;11.20;92.10;;;;;;2080672;28;20025;-70
2021/04/29 05:12:05;;;;;;;16.65;12.43;;;11.20;92.30;;;;;;2080747;28;20053;-71
2021/04/29 05:13:06;;;;;;;17.33;12.80;;;11.20;92.40;;;;;;2081140;28;20021;-70
2021/04/29 05:14:07;;;;;;;15.63;12.95;;;11.20;92.50;;;;;;2081278;28;20389;-71
2021/04/29 05:15:08;;;;;;;14.68;12.30;;;11.20;92.60;;;;;;2081290;28;20025;-71
2021/04/29 05:16:09;;;;;;;17.02;13.68;;;11.20;92.70;;;;;;2080467;28;20034;-71